sensor_id;sensor_type;location;lat;lon;timestamp;P1;durP1;ratioP1;P2;durP2;ratioP2
15114;SDS011;7658;51.456;7.622;2023-02-11T00:01:51;51.60;;;29.73;;
15114;SDS011;7658;51.456;7.622;2023-02-11T00:04:17;53.83;;;30.57;;
15114;SDS011;7658;51.456;7.622;2023-02-11T00:06:43;52.57;;;30.27;;
15114;SDS011;7658;51.456;7.622;2023-02-11T00:09:08;51.40;;;29.87;;
15114;SDS011;7658;51.456;7.622;2023-02-11T00:11:34;54.80;;;27.83;;
15114;SDS011;7658;51.456;7.622;2023-02-11T00:14:02;46.17;;;28.87;;
15114;SDS011;7658;51.456;7.622;2023-02-11T00:16:29;50.57;;;28.63;;
15114;SDS011;7658;51.456;7.622;2023-02-11T00:18:57;49.77;;;27.97;;
15114;SDS011;7658;51.456;7.622;2023-02-11T00:21:24;46.60;;;28.10;;
15114;SDS011;7658;51.456;7.622;2023-02-11T00:23:51;49.03;;;28.27;;
15114;SDS011;7658;51.456;7.622;2023-02-11T00:26:28;51.50;;;27.83;;
15114;SDS011;7658;51.456;7.622;2023-02-11T00:28:56;49.20;;;29.07;;
15114;SDS011;7658;51.456;7.622;2023-02-11T00:31:22;51.50;;;28.67;;
15114;SDS011;7658;51.456;7.622;2023-02-11T00:33:50;45.60;;;28.73;;
15114;SDS011;7658;51.456;7.622;2023-02-11T00:36:17;55.63;;;29.27;;
15114;SDS011;7658;51.456;7.622;2023-02-11T00:38:47;48.53;;;28.77;;
15114;SDS011;7658;51.456;7.622;2023-02-11T00:41:14;46.20;;;26.60;;
15114;SDS011;7658;51.456;7.622;2023-02-11T00:43:40;48.40;;;28.93;;
15114;SDS011;7658;51.456;7.622;2023-02-11T00:46:06;54.20;;;28.90;;
15114;SDS011;7658;51.456;7.622;2023-02-11T00:48:33;48.43;;;26.27;;
15114;SDS011;7658;51.456;7.622;2023-02-11T00:50:59;46.93;;;28.13;;
15114;SDS011;7658;51.456;7.622;2023-02-11T00:53:25;47.67;;;27.47;;
15114;SDS011;7658;51.456;7.622;2023-02-11T00:55:51;44.07;;;27.13;;
15114;SDS011;7658;51.456;7.622;2023-02-11T00:58:17;47.13;;;28.73;;
15114;SDS011;7658;51.456;7.622;2023-02-11T01:00:42;50.03;;;28.23;;
15114;SDS011;7658;51.456;7.622;2023-02-11T01:03:08;45.23;;;26.90;;
15114;SDS011;7658;51.456;7.622;2023-02-11T01:05:34;45.67;;;27.87;;
15114;SDS011;7658;51.456;7.622;2023-02-11T01:08:00;52.33;;;29.50;;
15114;SDS011;7658;51.456;7.622;2023-02-11T01:10:26;50.47;;;29.23;;
15114;SDS011;7658;51.456;7.622;2023-02-11T01:12:52;49.37;;;29.17;;
15114;SDS011;7658;51.456;7.622;2023-02-11T01:15:19;44.93;;;26.70;;
15114;SDS011;7658;51.456;7.622;2023-02-11T01:17:45;49.40;;;28.07;;
15114;SDS011;7658;51.456;7.622;2023-02-11T01:20:16;51.33;;;29.60;;
15114;SDS011;7658;51.456;7.622;2023-02-11T01:22:47;45.23;;;26.33;;
15114;SDS011;7658;51.456;7.622;2023-02-11T01:25:13;44.13;;;26.57;;
15114;SDS011;7658;51.456;7.622;2023-02-11T01:27:39;45.07;;;26.67;;
15114;SDS011;7658;51.456;7.622;2023-02-11T01:30:05;47.97;;;27.37;;
15114;SDS011;7658;51.456;7.622;2023-02-11T01:32:32;45.73;;;26.97;;
15114;SDS011;7658;51.456;7.622;2023-02-11T01:34:59;49.23;;;28.00;;
15114;SDS011;7658;51.456;7.622;2023-02-11T01:37:25;47.73;;;28.17;;
15114;SDS011;7658;51.456;7.622;2023-02-11T01:39:50;41.97;;;26.37;;
15114;SDS011;7658;51.456;7.622;2023-02-11T01:42:17;47.53;;;28.17;;
15114;SDS011;7658;51.456;7.622;2023-02-11T01:44:47;45.20;;;26.63;;
15114;SDS011;7658;51.456;7.622;2023-02-11T01:47:15;46.33;;;27.77;;
15114;SDS011;7658;51.456;7.622;2023-02-11T01:49:42;43.90;;;26.33;;
15114;SDS011;7658;51.456;7.622;2023-02-11T01:52:13;49.43;;;27.93;;
15114;SDS011;7658;51.456;7.622;2023-02-11T01:54:54;48.33;;;26.47;;
15114;SDS011;7658;51.456;7.622;2023-02-11T01:57:44;42.03;;;25.43;;
15114;SDS011;7658;51.456;7.622;2023-02-11T02:11:26;37.73;;;25.07;;
15114;SDS011;7658;51.456;7.622;2023-02-11T02:13:52;47.10;;;26.57;;
15114;SDS011;7658;51.456;7.622;2023-02-11T02:16:18;41.33;;;25.67;;
15114;SDS011;7658;51.456;7.622;2023-02-11T02:24:41;47.83;;;26.97;;
15114;SDS011;7658;51.456;7.622;2023-02-11T02:32:49;45.47;;;26.60;;
15114;SDS011;7658;51.456;7.622;2023-02-11T02:38:56;45.63;;;27.93;;
15114;SDS011;7658;51.456;7.622;2023-02-11T02:41:29;53.07;;;27.60;;
15114;SDS011;7658;51.456;7.622;2023-02-11T02:43:57;47.23;;;27.37;;
15114;SDS011;7658;51.456;7.622;2023-02-11T02:46:25;45.03;;;27.63;;
15114;SDS011;7658;51.456;7.622;2023-02-11T02:48:51;50.07;;;28.57;;
15114;SDS011;7658;51.456;7.622;2023-02-11T03:02:42;48.93;;;29.23;;
15114;SDS011;7658;51.456;7.622;2023-02-11T03:08:01;44.60;;;27.50;;
15114;SDS011;7658;51.456;7.622;2023-02-11T03:10:51;47.93;;;28.77;;
15114;SDS011;7658;51.456;7.622;2023-02-11T03:13:19;41.30;;;27.37;;
15114;SDS011;7658;51.456;7.622;2023-02-11T03:15:51;47.50;;;28.73;;
15114;SDS011;7658;51.456;7.622;2023-02-11T03:18:21;49.03;;;27.47;;
15114;SDS011;7658;51.456;7.622;2023-02-11T03:20:49;49.43;;;27.77;;
15114;SDS011;7658;51.456;7.622;2023-02-11T03:23:20;49.20;;;27.93;;
15114;SDS011;7658;51.456;7.622;2023-02-11T03:26:04;50.03;;;27.80;;
15114;SDS011;7658;51.456;7.622;2023-02-11T03:32:06;51.20;;;28.93;;
15114;SDS011;7658;51.456;7.622;2023-02-11T03:37:13;48.00;;;27.53;;
15114;SDS011;7658;51.456;7.622;2023-02-11T03:39:52;47.43;;;27.23;;
15114;SDS011;7658;51.456;7.622;2023-02-11T03:42:23;47.00;;;26.70;;
15114;SDS011;7658;51.456;7.622;2023-02-11T03:44:57;46.97;;;27.77;;
15114;SDS011;7658;51.456;7.622;2023-02-11T03:47:28;47.27;;;27.17;;
15114;SDS011;7658;51.456;7.622;2023-02-11T03:49:56;50.50;;;27.70;;
15114;SDS011;7658;51.456;7.622;2023-02-11T03:52:25;46.67;;;27.73;;
15114;SDS011;7658;51.456;7.622;2023-02-11T03:54:52;50.60;;;30.17;;
15114;SDS011;7658;51.456;7.622;2023-02-11T03:57:21;43.33;;;27.63;;
15114;SDS011;7658;51.456;7.622;2023-02-11T04:02:15;44.70;;;28.33;;
15114;SDS011;7658;51.456;7.622;2023-02-11T04:04:41;48.30;;;28.73;;
15114;SDS011;7658;51.456;7.622;2023-02-11T04:07:08;48.80;;;29.73;;
15114;SDS011;7658;51.456;7.622;2023-02-11T04:09:35;46.67;;;28.93;;
15114;SDS011;7658;51.456;7.622;2023-02-11T04:12:01;49.20;;;28.23;;
15114;SDS011;7658;51.456;7.622;2023-02-11T04:14:27;52.73;;;30.67;;
15114;SDS011;7658;51.456;7.622;2023-02-11T04:16:53;50.90;;;29.87;;
15114;SDS011;7658;51.456;7.622;2023-02-11T04:19:18;48.30;;;31.13;;
15114;SDS011;7658;51.456;7.622;2023-02-11T04:21:44;50.30;;;29.93;;
15114;SDS011;7658;51.456;7.622;2023-02-11T04:24:11;56.87;;;30.97;;
15114;SDS011;7658;51.456;7.622;2023-02-11T04:26:36;53.80;;;29.50;;
15114;SDS011;7658;51.456;7.622;2023-02-11T04:29:02;58.03;;;33.20;;
15114;SDS011;7658;51.456;7.622;2023-02-11T04:31:28;51.97;;;32.73;;
15114;SDS011;7658;51.456;7.622;2023-02-11T04:33:54;58.87;;;32.83;;
15114;SDS011;7658;51.456;7.622;2023-02-11T04:36:20;59.37;;;32.93;;
15114;SDS011;7658;51.456;7.622;2023-02-11T04:38:46;60.50;;;34.53;;
15114;SDS011;7658;51.456;7.622;2023-02-11T04:41:12;61.10;;;34.10;;
15114;SDS011;7658;51.456;7.622;2023-02-11T04:43:38;57.63;;;33.47;;
15114;SDS011;7658;51.456;7.622;2023-02-11T04:46:03;65.07;;;35.80;;
15114;SDS011;7658;51.456;7.622;2023-02-11T04:48:29;68.57;;;35.97;;
15114;SDS011;7658;51.456;7.622;2023-02-11T04:50:55;68.83;;;34.43;;
15114;SDS011;7658;51.456;7.622;2023-02-11T04:53:21;64.90;;;33.33;;
15114;SDS011;7658;51.456;7.622;2023-02-11T04:55:48;65.00;;;34.97;;
15114;SDS011;7658;51.456;7.622;2023-02-11T04:58:14;63.63;;;35.83;;
15114;SDS011;7658;51.456;7.622;2023-02-11T05:00:42;63.03;;;36.00;;
15114;SDS011;7658;51.456;7.622;2023-02-11T05:03:08;64.57;;;36.70;;
15114;SDS011;7658;51.456;7.622;2023-02-11T05:05:36;66.77;;;37.53;;
15114;SDS011;7658;51.456;7.622;2023-02-11T05:08:06;68.30;;;38.40;;
15114;SDS011;7658;51.456;7.622;2023-02-11T05:10:33;63.50;;;37.43;;
15114;SDS011;7658;51.456;7.622;2023-02-11T05:12:59;74.13;;;39.37;;
15114;SDS011;7658;51.456;7.622;2023-02-11T05:15:25;75.40;;;37.90;;
15114;SDS011;7658;51.456;7.622;2023-02-11T05:17:51;67.27;;;36.83;;
15114;SDS011;7658;51.456;7.622;2023-02-11T05:20:17;73.90;;;38.23;;
15114;SDS011;7658;51.456;7.622;2023-02-11T05:22:44;68.17;;;38.83;;
15114;SDS011;7658;51.456;7.622;2023-02-11T05:25:10;82.50;;;39.67;;
15114;SDS011;7658;51.456;7.622;2023-02-11T05:27:36;79.90;;;39.97;;
15114;SDS011;7658;51.456;7.622;2023-02-11T05:30:02;77.80;;;38.93;;
15114;SDS011;7658;51.456;7.622;2023-02-11T05:32:28;75.73;;;39.53;;
15114;SDS011;7658;51.456;7.622;2023-02-11T05:34:54;72.20;;;40.53;;
15114;SDS011;7658;51.456;7.622;2023-02-11T05:37:19;81.50;;;41.30;;
15114;SDS011;7658;51.456;7.622;2023-02-11T05:39:45;76.93;;;38.97;;
15114;SDS011;7658;51.456;7.622;2023-02-11T05:42:11;79.93;;;39.33;;
15114;SDS011;7658;51.456;7.622;2023-02-11T05:44:38;82.17;;;43.80;;
15114;SDS011;7658;51.456;7.622;2023-02-11T05:47:03;85.33;;;41.60;;
15114;SDS011;7658;51.456;7.622;2023-02-11T05:49:29;74.63;;;39.20;;
15114;SDS011;7658;51.456;7.622;2023-02-11T05:51:55;79.80;;;41.27;;
15114;SDS011;7658;51.456;7.622;2023-02-11T05:54:21;82.53;;;40.53;;
15114;SDS011;7658;51.456;7.622;2023-02-11T05:56:46;83.07;;;39.27;;
15114;SDS011;7658;51.456;7.622;2023-02-11T05:59:13;74.97;;;38.67;;
15114;SDS011;7658;51.456;7.622;2023-02-11T06:01:39;76.10;;;38.93;;
15114;SDS011;7658;51.456;7.622;2023-02-11T06:04:05;76.70;;;40.30;;
15114;SDS011;7658;51.456;7.622;2023-02-11T06:06:30;84.57;;;40.97;;
15114;SDS011;7658;51.456;7.622;2023-02-11T06:08:56;85.00;;;40.17;;
15114;SDS011;7658;51.456;7.622;2023-02-11T06:11:22;77.67;;;38.47;;
15114;SDS011;7658;51.456;7.622;2023-02-11T06:13:48;74.87;;;39.50;;
15114;SDS011;7658;51.456;7.622;2023-02-11T06:16:13;70.00;;;39.30;;
15114;SDS011;7658;51.456;7.622;2023-02-11T06:18:39;82.43;;;40.67;;
15114;SDS011;7658;51.456;7.622;2023-02-11T06:21:06;79.60;;;40.20;;
15114;SDS011;7658;51.456;7.622;2023-02-11T06:23:32;76.33;;;39.77;;
15114;SDS011;7658;51.456;7.622;2023-02-11T06:26:05;81.73;;;40.77;;
15114;SDS011;7658;51.456;7.622;2023-02-11T06:28:32;78.43;;;41.13;;
15114;SDS011;7658;51.456;7.622;2023-02-11T06:31:08;73.57;;;39.33;;
15114;SDS011;7658;51.456;7.622;2023-02-11T06:33:36;81.83;;;39.70;;
15114;SDS011;7658;51.456;7.622;2023-02-11T06:36:02;79.67;;;40.03;;
15114;SDS011;7658;51.456;7.622;2023-02-11T06:38:28;79.40;;;38.47;;
15114;SDS011;7658;51.456;7.622;2023-02-11T06:40:55;81.47;;;39.97;;
15114;SDS011;7658;51.456;7.622;2023-02-11T06:43:20;70.67;;;38.23;;
15114;SDS011;7658;51.456;7.622;2023-02-11T06:45:55;74.03;;;37.17;;
15114;SDS011;7658;51.456;7.622;2023-02-11T06:48:22;84.73;;;39.30;;
15114;SDS011;7658;51.456;7.622;2023-02-11T06:50:47;73.03;;;37.73;;
15114;SDS011;7658;51.456;7.622;2023-02-11T06:53:13;75.30;;;38.70;;
15114;SDS011;7658;51.456;7.622;2023-02-11T06:55:39;75.20;;;36.50;;
15114;SDS011;7658;51.456;7.622;2023-02-11T06:58:04;74.73;;;37.67;;
15114;SDS011;7658;51.456;7.622;2023-02-11T07:00:30;70.63;;;38.43;;
15114;SDS011;7658;51.456;7.622;2023-02-11T07:02:56;76.83;;;38.83;;
15114;SDS011;7658;51.456;7.622;2023-02-11T07:05:22;78.60;;;38.60;;
15114;SDS011;7658;51.456;7.622;2023-02-11T07:07:47;73.27;;;37.50;;
15114;SDS011;7658;51.456;7.622;2023-02-11T07:10:13;69.40;;;36.63;;
15114;SDS011;7658;51.456;7.622;2023-02-11T07:12:39;72.00;;;36.50;;
15114;SDS011;7658;51.456;7.622;2023-02-11T07:15:05;82.17;;;38.23;;
15114;SDS011;7658;51.456;7.622;2023-02-11T07:17:32;69.13;;;37.37;;
15114;SDS011;7658;51.456;7.622;2023-02-11T07:19:59;65.43;;;37.23;;
15114;SDS011;7658;51.456;7.622;2023-02-11T07:22:25;71.27;;;39.00;;
15114;SDS011;7658;51.456;7.622;2023-02-11T07:24:51;69.07;;;38.83;;
15114;SDS011;7658;51.456;7.622;2023-02-11T07:27:16;71.43;;;36.30;;
15114;SDS011;7658;51.456;7.622;2023-02-11T07:29:42;67.87;;;36.63;;
15114;SDS011;7658;51.456;7.622;2023-02-11T07:32:10;72.47;;;37.70;;
15114;SDS011;7658;51.456;7.622;2023-02-11T07:34:35;76.43;;;38.03;;
15114;SDS011;7658;51.456;7.622;2023-02-11T07:37:01;74.23;;;36.77;;
15114;SDS011;7658;51.456;7.622;2023-02-11T07:39:27;66.40;;;36.27;;
15114;SDS011;7658;51.456;7.622;2023-02-11T07:41:54;68.50;;;36.83;;
15114;SDS011;7658;51.456;7.622;2023-02-11T07:44:21;67.70;;;36.33;;
15114;SDS011;7658;51.456;7.622;2023-02-11T07:46:47;65.57;;;37.70;;
15114;SDS011;7658;51.456;7.622;2023-02-11T07:49:13;69.37;;;36.70;;
15114;SDS011;7658;51.456;7.622;2023-02-11T07:51:40;70.53;;;35.83;;
15114;SDS011;7658;51.456;7.622;2023-02-11T07:54:05;76.70;;;36.17;;
15114;SDS011;7658;51.456;7.622;2023-02-11T07:56:32;75.93;;;36.13;;
15114;SDS011;7658;51.456;7.622;2023-02-11T07:59:04;68.03;;;34.70;;
15114;SDS011;7658;51.456;7.622;2023-02-11T08:01:36;77.90;;;36.47;;
15114;SDS011;7658;51.456;7.622;2023-02-11T08:04:08;63.43;;;33.73;;
15114;SDS011;7658;51.456;7.622;2023-02-11T08:06:41;74.83;;;35.47;;
15114;SDS011;7658;51.456;7.622;2023-02-11T08:09:08;73.43;;;34.83;;
15114;SDS011;7658;51.456;7.622;2023-02-11T08:11:37;75.80;;;35.73;;
15114;SDS011;7658;51.456;7.622;2023-02-11T08:14:03;78.43;;;36.83;;
15114;SDS011;7658;51.456;7.622;2023-02-11T08:16:30;78.00;;;36.90;;
15114;SDS011;7658;51.456;7.622;2023-02-11T08:18:58;81.20;;;36.77;;
15114;SDS011;7658;51.456;7.622;2023-02-11T08:21:26;76.97;;;36.17;;
15114;SDS011;7658;51.456;7.622;2023-02-11T08:23:53;79.37;;;35.77;;
15114;SDS011;7658;51.456;7.622;2023-02-11T08:26:20;73.70;;;36.40;;
15114;SDS011;7658;51.456;7.622;2023-02-11T08:28:48;79.73;;;35.17;;
15114;SDS011;7658;51.456;7.622;2023-02-11T08:31:17;84.73;;;36.57;;
15114;SDS011;7658;51.456;7.622;2023-02-11T08:33:47;74.07;;;36.43;;
15114;SDS011;7658;51.456;7.622;2023-02-11T08:36:14;83.20;;;35.80;;
15114;SDS011;7658;51.456;7.622;2023-02-11T08:38:45;79.87;;;37.50;;
15114;SDS011;7658;51.456;7.622;2023-02-11T08:41:11;79.77;;;38.63;;
15114;SDS011;7658;51.456;7.622;2023-02-11T08:43:41;84.90;;;37.53;;
15114;SDS011;7658;51.456;7.622;2023-02-11T08:46:09;96.90;;;41.57;;
15114;SDS011;7658;51.456;7.622;2023-02-11T08:48:38;100.37;;;41.87;;
15114;SDS011;7658;51.456;7.622;2023-02-11T08:51:05;87.57;;;40.57;;
15114;SDS011;7658;51.456;7.622;2023-02-11T08:53:32;93.67;;;40.37;;
15114;SDS011;7658;51.456;7.622;2023-02-11T08:55:58;84.60;;;39.23;;
15114;SDS011;7658;51.456;7.622;2023-02-11T08:58:24;88.90;;;38.67;;
15114;SDS011;7658;51.456;7.622;2023-02-11T09:00:50;86.63;;;38.70;;
15114;SDS011;7658;51.456;7.622;2023-02-11T09:03:15;88.10;;;39.67;;
15114;SDS011;7658;51.456;7.622;2023-02-11T09:05:45;82.67;;;37.27;;
15114;SDS011;7658;51.456;7.622;2023-02-11T09:08:14;86.40;;;38.87;;
15114;SDS011;7658;51.456;7.622;2023-02-11T09:10:40;89.53;;;39.60;;
15114;SDS011;7658;51.456;7.622;2023-02-11T09:13:06;91.30;;;40.17;;
15114;SDS011;7658;51.456;7.622;2023-02-11T09:15:33;92.37;;;39.87;;
15114;SDS011;7658;51.456;7.622;2023-02-11T09:17:59;91.33;;;40.30;;
15114;SDS011;7658;51.456;7.622;2023-02-11T09:20:26;105.60;;;40.93;;
15114;SDS011;7658;51.456;7.622;2023-02-11T09:22:52;91.63;;;41.37;;
15114;SDS011;7658;51.456;7.622;2023-02-11T09:25:20;103.23;;;43.03;;
15114;SDS011;7658;51.456;7.622;2023-02-11T09:27:46;100.07;;;42.07;;
15114;SDS011;7658;51.456;7.622;2023-02-11T09:30:12;102.70;;;43.40;;
15114;SDS011;7658;51.456;7.622;2023-02-11T09:32:37;107.00;;;43.77;;
15114;SDS011;7658;51.456;7.622;2023-02-11T09:35:03;111.93;;;45.20;;
15114;SDS011;7658;51.456;7.622;2023-02-11T09:37:33;113.03;;;44.43;;
15114;SDS011;7658;51.456;7.622;2023-02-11T09:39:59;107.77;;;43.07;;
15114;SDS011;7658;51.456;7.622;2023-02-11T09:45:18;103.30;;;42.47;;
15114;SDS011;7658;51.456;7.622;2023-02-11T09:47:48;113.27;;;44.17;;
15114;SDS011;7658;51.456;7.622;2023-02-11T09:50:29;112.23;;;42.90;;
15114;SDS011;7658;51.456;7.622;2023-02-11T09:52:58;106.90;;;42.57;;
15114;SDS011;7658;51.456;7.622;2023-02-11T09:55:38;104.63;;;43.77;;
15114;SDS011;7658;51.456;7.622;2023-02-11T09:58:10;103.33;;;43.10;;
15114;SDS011;7658;51.456;7.622;2023-02-11T10:06:18;104.73;;;42.77;;
15114;SDS011;7658;51.456;7.622;2023-02-11T10:11:35;101.77;;;42.50;;
15114;SDS011;7658;51.456;7.622;2023-02-11T10:20:13;97.37;;;42.20;;
15114;SDS011;7658;51.456;7.622;2023-02-11T10:22:53;92.80;;;41.30;;
15114;SDS011;7658;51.456;7.622;2023-02-11T10:25:23;109.43;;;45.00;;
15114;SDS011;7658;51.456;7.622;2023-02-11T10:27:51;104.83;;;44.87;;
15114;SDS011;7658;51.456;7.622;2023-02-11T10:30:22;104.23;;;41.13;;
15114;SDS011;7658;51.456;7.622;2023-02-11T10:35:29;101.57;;;42.63;;
15114;SDS011;7658;51.456;7.622;2023-02-11T10:37:56;98.70;;;42.90;;
15114;SDS011;7658;51.456;7.622;2023-02-11T10:40:25;112.47;;;44.27;;
15114;SDS011;7658;51.456;7.622;2023-02-11T10:42:53;102.63;;;41.87;;
15114;SDS011;7658;51.456;7.622;2023-02-11T10:45:35;103.77;;;42.93;;
15114;SDS011;7658;51.456;7.622;2023-02-11T10:48:04;100.87;;;42.80;;
15114;SDS011;7658;51.456;7.622;2023-02-11T10:50:50;96.73;;;43.43;;
15114;SDS011;7658;51.456;7.622;2023-02-11T10:53:36;96.57;;;40.93;;
15114;SDS011;7658;51.456;7.622;2023-02-11T10:56:02;106.27;;;42.23;;
15114;SDS011;7658;51.456;7.622;2023-02-11T11:01:08;103.30;;;40.23;;
15114;SDS011;7658;51.456;7.622;2023-02-11T11:03:58;99.17;;;41.50;;
15114;SDS011;7658;51.456;7.622;2023-02-11T11:06:32;101.77;;;42.40;;
15114;SDS011;7658;51.456;7.622;2023-02-11T11:09:09;100.20;;;41.47;;
15114;SDS011;7658;51.456;7.622;2023-02-11T11:15:29;100.30;;;42.27;;
15114;SDS011;7658;51.456;7.622;2023-02-11T11:20:58;94.40;;;42.27;;
15114;SDS011;7658;51.456;7.622;2023-02-11T11:23:35;89.87;;;41.17;;
15114;SDS011;7658;51.456;7.622;2023-02-11T11:26:08;94.00;;;41.40;;
15114;SDS011;7658;51.456;7.622;2023-02-11T11:31:21;87.10;;;41.97;;
15114;SDS011;7658;51.456;7.622;2023-02-11T11:33:51;89.93;;;39.93;;
15114;SDS011;7658;51.456;7.622;2023-02-11T11:36:37;89.73;;;39.43;;
15114;SDS011;7658;51.456;7.622;2023-02-11T11:39:21;94.73;;;41.40;;
15114;SDS011;7658;51.456;7.622;2023-02-11T11:42:01;94.97;;;41.10;;
15114;SDS011;7658;51.456;7.622;2023-02-11T11:44:38;98.33;;;42.33;;
15114;SDS011;7658;51.456;7.622;2023-02-11T11:49:41;92.33;;;42.00;;
15114;SDS011;7658;51.456;7.622;2023-02-11T11:52:49;90.33;;;39.87;;
15114;SDS011;7658;51.456;7.622;2023-02-11T11:56:08;90.67;;;39.03;;
15114;SDS011;7658;51.456;7.622;2023-02-11T11:58:49;94.67;;;40.73;;
15114;SDS011;7658;51.456;7.622;2023-02-11T12:04:21;101.10;;;43.07;;
15114;SDS011;7658;51.456;7.622;2023-02-11T12:07:16;96.57;;;42.00;;
15114;SDS011;7658;51.456;7.622;2023-02-11T12:16:01;84.97;;;39.57;;
15114;SDS011;7658;51.456;7.622;2023-02-11T12:19:02;100.40;;;42.70;;
15114;SDS011;7658;51.456;7.622;2023-02-11T12:22:00;95.40;;;41.37;;
15114;SDS011;7658;51.456;7.622;2023-02-11T12:24:53;95.70;;;42.83;;
15114;SDS011;7658;51.456;7.622;2023-02-11T12:27:52;95.03;;;43.30;;
15114;SDS011;7658;51.456;7.622;2023-02-11T12:34:30;96.63;;;42.43;;
15114;SDS011;7658;51.456;7.622;2023-02-11T12:37:01;96.07;;;41.70;;
15114;SDS011;7658;51.456;7.622;2023-02-11T12:54:35;99.73;;;43.67;;
15114;SDS011;7658;51.456;7.622;2023-02-11T13:02:59;117.17;;;45.73;;
15114;SDS011;7658;51.456;7.622;2023-02-11T13:06:09;105.60;;;47.43;;
15114;SDS011;7658;51.456;7.622;2023-02-11T13:08:57;105.63;;;45.77;;
15114;SDS011;7658;51.456;7.622;2023-02-11T13:11:28;103.17;;;44.83;;
15114;SDS011;7658;51.456;7.622;2023-02-11T13:14:07;116.10;;;45.07;;
15114;SDS011;7658;51.456;7.622;2023-02-11T13:17:00;122.43;;;46.37;;
15114;SDS011;7658;51.456;7.622;2023-02-11T13:19:45;111.63;;;46.20;;
15114;SDS011;7658;51.456;7.622;2023-02-11T13:22:30;121.93;;;51.87;;
15114;SDS011;7658;51.456;7.622;2023-02-11T13:26:09;123.03;;;53.13;;
15114;SDS011;7658;51.456;7.622;2023-02-11T13:28:20;115.03;;;49.17;;
15114;SDS011;7658;51.456;7.622;2023-02-11T13:30:56;122.77;;;49.60;;
15114;SDS011;7658;51.456;7.622;2023-02-11T13:33:33;116.17;;;50.17;;
15114;SDS011;7658;51.456;7.622;2023-02-11T13:38:39;110.13;;;49.60;;
15114;SDS011;7658;51.456;7.622;2023-02-11T13:41:16;117.37;;;50.03;;
15114;SDS011;7658;51.456;7.622;2023-02-11T13:46:47;116.90;;;50.87;;
15114;SDS011;7658;51.456;7.622;2023-02-11T13:49:21;118.10;;;50.43;;
15114;SDS011;7658;51.456;7.622;2023-02-11T13:51:56;106.07;;;46.17;;
15114;SDS011;7658;51.456;7.622;2023-02-11T13:54:46;126.63;;;49.10;;
15114;SDS011;7658;51.456;7.622;2023-02-11T13:57:21;125.97;;;49.60;;
15114;SDS011;7658;51.456;7.622;2023-02-11T14:08:18;116.20;;;50.63;;
15114;SDS011;7658;51.456;7.622;2023-02-11T14:11:08;122.80;;;49.53;;
15114;SDS011;7658;51.456;7.622;2023-02-11T14:14:18;112.27;;;48.27;;
15114;SDS011;7658;51.456;7.622;2023-02-11T14:19:35;129.27;;;54.10;;
15114;SDS011;7658;51.456;7.622;2023-02-11T14:25:23;129.77;;;52.93;;
15114;SDS011;7658;51.456;7.622;2023-02-11T14:27:54;127.30;;;51.03;;
15114;SDS011;7658;51.456;7.622;2023-02-11T14:30:55;120.00;;;51.53;;
15114;SDS011;7658;51.456;7.622;2023-02-11T14:33:45;116.70;;;48.13;;
15114;SDS011;7658;51.456;7.622;2023-02-11T14:36:40;118.80;;;47.63;;
15114;SDS011;7658;51.456;7.622;2023-02-11T14:42:01;123.00;;;53.00;;
15114;SDS011;7658;51.456;7.622;2023-02-11T14:44:29;130.77;;;57.87;;
15114;SDS011;7658;51.456;7.622;2023-02-11T14:46:57;120.80;;;53.93;;
15114;SDS011;7658;51.456;7.622;2023-02-11T14:49:27;188.57;;;93.57;;
15114;SDS011;7658;51.456;7.622;2023-02-11T14:52:03;151.83;;;77.87;;
15114;SDS011;7658;51.456;7.622;2023-02-11T14:54:41;130.33;;;63.00;;
15114;SDS011;7658;51.456;7.622;2023-02-11T14:57:15;122.67;;;53.03;;
15114;SDS011;7658;51.456;7.622;2023-02-11T15:02:31;142.70;;;65.17;;
15114;SDS011;7658;51.456;7.622;2023-02-11T15:07:57;121.13;;;50.93;;
15114;SDS011;7658;51.456;7.622;2023-02-11T15:10:29;111.07;;;46.73;;
15114;SDS011;7658;51.456;7.622;2023-02-11T15:12:56;120.60;;;50.03;;
15114;SDS011;7658;51.456;7.622;2023-02-11T15:15:24;107.47;;;50.83;;
15114;SDS011;7658;51.456;7.622;2023-02-11T15:17:51;123.13;;;50.23;;
15114;SDS011;7658;51.456;7.622;2023-02-11T15:20:23;114.77;;;50.07;;
15114;SDS011;7658;51.456;7.622;2023-02-11T15:22:53;128.00;;;48.47;;
15114;SDS011;7658;51.456;7.622;2023-02-11T15:25:22;126.53;;;50.93;;
15114;SDS011;7658;51.456;7.622;2023-02-11T15:27:50;115.23;;;48.00;;
15114;SDS011;7658;51.456;7.622;2023-02-11T15:32:47;122.20;;;52.53;;
15114;SDS011;7658;51.456;7.622;2023-02-11T15:35:15;115.90;;;54.03;;
15114;SDS011;7658;51.456;7.622;2023-02-11T15:37:42;108.60;;;49.23;;
15114;SDS011;7658;51.456;7.622;2023-02-11T15:40:10;122.60;;;53.27;;
15114;SDS011;7658;51.456;7.622;2023-02-11T15:45:33;119.63;;;51.13;;
15114;SDS011;7658;51.456;7.622;2023-02-11T15:48:13;111.87;;;50.30;;
15114;SDS011;7658;51.456;7.622;2023-02-11T15:50:42;115.20;;;47.07;;
15114;SDS011;7658;51.456;7.622;2023-02-11T15:55:59;124.30;;;51.13;;
15114;SDS011;7658;51.456;7.622;2023-02-11T15:58:27;115.73;;;48.57;;
15114;SDS011;7658;51.456;7.622;2023-02-11T16:00:53;115.00;;;47.40;;
15114;SDS011;7658;51.456;7.622;2023-02-11T16:03:24;116.27;;;49.20;;
15114;SDS011;7658;51.456;7.622;2023-02-11T16:05:56;106.70;;;48.37;;
15114;SDS011;7658;51.456;7.622;2023-02-11T16:08:42;117.13;;;49.03;;
15114;SDS011;7658;51.456;7.622;2023-02-11T16:11:27;99.60;;;47.50;;
15114;SDS011;7658;51.456;7.622;2023-02-11T16:13:58;101.60;;;44.77;;
15114;SDS011;7658;51.456;7.622;2023-02-11T16:16:26;120.17;;;46.13;;
15114;SDS011;7658;51.456;7.622;2023-02-11T16:19:00;113.17;;;46.13;;
15114;SDS011;7658;51.456;7.622;2023-02-11T16:21:33;121.70;;;48.53;;
15114;SDS011;7658;51.456;7.622;2023-02-11T16:24:03;109.83;;;47.00;;
15114;SDS011;7658;51.456;7.622;2023-02-11T16:26:44;120.37;;;47.33;;
15114;SDS011;7658;51.456;7.622;2023-02-11T16:29:14;113.43;;;47.17;;
15114;SDS011;7658;51.456;7.622;2023-02-11T16:31:48;109.17;;;46.80;;
15114;SDS011;7658;51.456;7.622;2023-02-11T16:34:23;112.73;;;44.30;;
15114;SDS011;7658;51.456;7.622;2023-02-11T16:36:50;105.03;;;47.33;;
15114;SDS011;7658;51.456;7.622;2023-02-11T16:39:17;102.57;;;44.57;;
15114;SDS011;7658;51.456;7.622;2023-02-11T16:41:47;95.77;;;44.47;;
15114;SDS011;7658;51.456;7.622;2023-02-11T16:44:15;99.53;;;44.13;;
15114;SDS011;7658;51.456;7.622;2023-02-11T16:46:41;109.53;;;43.43;;
15114;SDS011;7658;51.456;7.622;2023-02-11T16:49:19;103.50;;;44.90;;
15114;SDS011;7658;51.456;7.622;2023-02-11T16:51:47;89.17;;;41.43;;
15114;SDS011;7658;51.456;7.622;2023-02-11T16:54:14;96.60;;;41.53;;
15114;SDS011;7658;51.456;7.622;2023-02-11T16:56:41;94.17;;;42.27;;
15114;SDS011;7658;51.456;7.622;2023-02-11T16:59:07;100.07;;;44.07;;
15114;SDS011;7658;51.456;7.622;2023-02-11T17:01:33;86.13;;;41.60;;
15114;SDS011;7658;51.456;7.622;2023-02-11T17:04:02;98.27;;;42.93;;
15114;SDS011;7658;51.456;7.622;2023-02-11T17:06:28;91.43;;;41.13;;
15114;SDS011;7658;51.456;7.622;2023-02-11T17:08:54;84.50;;;39.03;;
15114;SDS011;7658;51.456;7.622;2023-02-11T17:11:19;87.63;;;40.93;;
15114;SDS011;7658;51.456;7.622;2023-02-11T17:13:45;88.60;;;39.97;;
15114;SDS011;7658;51.456;7.622;2023-02-11T17:16:18;90.10;;;40.97;;
15114;SDS011;7658;51.456;7.622;2023-02-11T17:18:46;85.10;;;40.17;;
15114;SDS011;7658;51.456;7.622;2023-02-11T17:21:13;79.37;;;38.97;;
15114;SDS011;7658;51.456;7.622;2023-02-11T17:23:39;80.80;;;39.10;;
15114;SDS011;7658;51.456;7.622;2023-02-11T17:26:05;93.67;;;41.73;;